createdAt,value
2019-05-07T00:00:47.871Z,23.70
2019-05-07T00:03:15.529Z,24.20
2019-05-07T00:05:43.133Z,23.80
2019-05-07T00:08:12.212Z,23.60
2019-05-07T00:10:42.305Z,23.90
2019-05-07T00:13:09.146Z,23.80
2019-05-07T00:15:36.748Z,24.00
2019-05-07T00:18:04.324Z,23.70
2019-05-07T00:20:32.706Z,24.20
2019-05-07T00:23:02.747Z,23.60
2019-05-07T00:25:30.015Z,23.50
2019-05-07T00:27:57.584Z,23.60
2019-05-07T00:30:25.177Z,23.40
2019-05-07T00:32:53.168Z,23.80
2019-05-07T00:35:22.637Z,23.60
2019-05-07T00:37:52.414Z,24.10
2019-05-07T00:40:22.547Z,23.90
2019-05-07T00:43:06.984Z,23.60
2019-05-07T00:45:42.243Z,23.50
2019-05-07T00:48:09.888Z,23.50
2019-05-07T00:50:39.232Z,23.60
2019-05-07T00:53:06.850Z,23.70
2019-05-07T00:55:34.411Z,23.50
2019-05-07T00:58:02.428Z,23.60
2019-05-07T01:00:30.354Z,23.50
2019-05-07T01:02:57.932Z,23.50
2019-05-07T01:05:25.477Z,23.50
2019-05-07T01:07:53.145Z,23.40
2019-05-07T01:10:22.277Z,23.50
2019-05-07T01:12:50.056Z,23.80
2019-05-07T01:15:28.768Z,23.40
2019-05-07T01:17:46.977Z,23.50
2019-05-07T01:20:14.604Z,23.70
2019-05-07T01:22:42.507Z,23.50
2019-05-07T01:25:10.208Z,23.50
2019-05-07T01:27:37.812Z,23.40
2019-05-07T01:30:05.384Z,23.50
2019-05-07T01:32:37.512Z,23.50
2019-05-07T01:35:19.300Z,23.90
2019-05-07T01:37:46.851Z,23.40
2019-05-07T01:40:14.481Z,23.50
2019-05-07T01:42:42.454Z,23.30
2019-05-07T01:45:12.909Z,23.50
2019-05-07T01:47:42.503Z,23.80
2019-05-07T01:50:10.009Z,23.40
2019-05-07T01:52:37.570Z,23.50
2019-05-07T01:55:05.433Z,23.20
2019-05-07T01:57:33.012Z,23.30
2019-05-07T02:00:02.626Z,23.40
2019-05-07T02:02:32.044Z,23.40
2019-05-07T02:05:03.155Z,23.60
2019-05-07T02:07:33.473Z,23.40
2019-05-07T02:10:02.992Z,23.70
2019-05-07T02:12:32.351Z,23.60
2019-05-07T02:15:02.471Z,23.40
2019-05-07T02:17:29.218Z,23.50
2019-05-07T02:19:56.788Z,23.60
2019-05-07T02:22:24.360Z,23.50
2019-05-07T02:24:52.472Z,23.40
2019-05-07T02:27:22.060Z,23.30
2019-05-07T02:29:49.551Z,23.30
2019-05-07T02:32:17.146Z,23.60
2019-05-07T02:34:44.699Z,23.40
2019-05-07T02:37:13.939Z,23.40
2019-05-07T02:39:53.256Z,23.50
2019-05-07T02:42:23.806Z,23.50
2019-05-07T02:44:57.793Z,23.60
2019-05-07T02:47:25.952Z,23.30
2019-05-07T02:49:55.212Z,23.40
2019-05-07T02:52:27.336Z,23.30
2019-05-07T02:54:56.549Z,23.40
2019-05-07T02:57:24.422Z,23.60
2019-05-07T02:59:54.312Z,23.50
2019-05-07T03:02:24.085Z,23.20
2019-05-07T03:04:53.216Z,23.30
2019-05-07T03:07:20.168Z,23.50
2019-05-07T03:09:47.713Z,23.60
2019-05-07T03:12:15.520Z,23.30
2019-05-07T03:14:43.841Z,23.60
2019-05-07T03:17:13.259Z,23.30
2019-05-07T03:19:43.143Z,23.30
2019-05-07T03:22:13.948Z,23.40
2019-05-07T03:24:43.444Z,23.60
2019-05-07T03:27:14.167Z,23.60
2019-05-07T03:29:44.147Z,23.20
2019-05-07T03:32:36.839Z,23.40
2019-05-07T03:35:19.597Z,23.50
2019-05-07T03:37:47.284Z,23.40
2019-05-07T03:40:14.866Z,23.70
2019-05-07T03:42:43.968Z,23.40
2019-05-07T03:45:22.873Z,23.40
2019-05-07T03:47:53.898Z,23.30
2019-05-07T03:50:23.092Z,23.50
2019-05-07T03:52:49.215Z,23.80
2019-05-07T03:55:16.809Z,23.50
2019-05-07T03:57:44.462Z,23.60
2019-05-07T04:00:13.035Z,23.40
2019-05-07T04:02:43.677Z,23.80
2019-05-07T04:05:13.642Z,23.40
2019-05-07T04:07:42.713Z,23.40
2019-05-07T04:10:14.053Z,23.40
2019-05-07T04:12:39.427Z,23.40
2019-05-07T04:15:07.016Z,23.30
2019-05-07T04:17:34.620Z,23.50
2019-05-07T04:20:04.479Z,23.40
2019-05-07T04:22:34.298Z,23.50
2019-05-07T04:25:14.517Z,23.30
2019-05-07T04:27:55.812Z,24.00
2019-05-07T04:30:23.765Z,23.40
2019-05-07T04:32:53.241Z,23.50
2019-05-07T04:35:24.395Z,23.40
2019-05-07T04:37:53.373Z,23.30
2019-05-07T04:40:24.063Z,23.50
2019-05-07T04:42:53.561Z,23.40
2019-05-07T04:45:22.864Z,23.50
2019-05-07T04:47:49.037Z,23.30
2019-05-07T04:50:36.776Z,23.40
2019-05-07T04:52:47.644Z,24.10
2019-05-07T04:55:15.203Z,23.80
2019-05-07T04:57:43.809Z,23.70
2019-05-07T05:00:13.413Z,23.60
2019-05-07T05:02:54.986Z,23.80
2019-05-07T05:05:23.733Z,23.90
2019-05-07T05:07:53.425Z,23.90
2019-05-07T05:10:23.134Z,23.60
2019-05-07T05:12:50.194Z,23.80
2019-05-07T05:15:17.836Z,23.90
2019-05-07T05:17:50.504Z,23.90
2019-05-07T05:20:15.770Z,23.80
2019-05-07T05:23:02.491Z,23.90
2019-05-07T05:25:32.356Z,24.40
2019-05-07T05:28:01.910Z,23.90
2019-05-07T05:30:36.976Z,24.00
2019-05-07T05:33:04.555Z,23.90
2019-05-07T05:35:32.246Z,24.00
2019-05-07T05:37:59.984Z,24.00
2019-05-07T05:40:27.704Z,24.30
2019-05-07T05:42:56.958Z,24.70
2019-05-07T05:45:33.751Z,24.40
2019-05-07T05:48:05.555Z,24.70
2019-05-07T05:50:33.088Z,24.10
2019-05-07T05:53:02.842Z,24.10
2019-05-07T05:55:32.162Z,24.60
2019-05-07T05:58:02.668Z,24.40
2019-05-07T06:00:32.837Z,24.90
2019-05-07T06:03:02.601Z,24.50
2019-05-07T06:05:42.041Z,24.80
2019-05-07T06:08:12.478Z,24.20
2019-05-07T06:10:47.562Z,24.10
2019-05-07T06:13:25.946Z,24.10
2019-05-07T06:16:07.193Z,24.10
2019-05-07T06:18:36.384Z,24.60
2019-05-07T06:21:24.129Z,24.10
2019-05-07T06:23:59.021Z,24.10
2019-05-07T06:26:26.595Z,24.10
2019-05-07T06:28:54.189Z,23.30
2019-05-07T06:31:22.210Z,23.60
2019-05-07T06:33:52.207Z,22.70
2019-05-07T06:36:19.395Z,23.70
2019-05-07T06:38:53.130Z,23.40
2019-05-07T06:41:41.848Z,24.00
2019-05-07T06:44:12.704Z,24.10
2019-05-07T06:46:41.932Z,24.10
2019-05-07T06:49:09.651Z,24.10
2019-05-07T06:51:37.226Z,24.10
2019-05-07T06:54:04.769Z,24.10
2019-05-07T06:56:32.670Z,24.10
2019-05-07T06:59:04.959Z,24.10
2019-05-07T07:01:42.204Z,24.10
2019-05-07T07:04:12.931Z,24.20
2019-05-07T07:06:47.467Z,24.00
2019-05-07T07:09:16.698Z,23.40
2019-05-07T07:11:49.121Z,23.70
2019-05-07T07:14:16.850Z,23.40
2019-05-07T07:16:44.479Z,23.30
2019-05-07T07:19:12.510Z,23.70
2019-05-07T07:21:42.083Z,23.10
2019-05-07T07:24:09.511Z,23.50
2019-05-07T07:26:37.086Z,23.40
2019-05-07T07:29:04.904Z,23.10
2019-05-07T07:31:34.159Z,23.30
2019-05-07T07:34:03.387Z,23.00
2019-05-07T07:36:32.634Z,22.60
2019-05-07T07:39:02.037Z,23.00
2019-05-07T07:41:42.095Z,22.60
2019-05-07T07:44:09.966Z,22.90
2019-05-07T07:46:37.558Z,23.00
2019-05-07T07:49:10.968Z,22.90
2019-05-07T07:51:41.183Z,23.00
2019-05-07T07:54:04.076Z,22.90
2019-05-07T07:56:49.089Z,22.50
2019-05-07T07:59:07.110Z,22.70
2019-05-07T08:01:36.342Z,22.90
2019-05-07T08:04:05.191Z,22.60
2019-05-07T08:06:32.780Z,22.90
2019-05-07T08:09:02.183Z,22.70
2019-05-07T08:11:31.836Z,22.80
2019-05-07T08:13:58.967Z,22.80
2019-05-07T08:16:26.591Z,22.30
2019-05-07T08:18:54.199Z,22.70
2019-05-07T08:21:22.720Z,22.60
2019-05-07T08:23:52.749Z,22.80
2019-05-07T08:26:21.891Z,22.50
2019-05-07T08:28:49.266Z,22.80
2019-05-07T08:31:36.507Z,22.80
2019-05-07T08:34:14.809Z,22.30
2019-05-07T08:36:42.376Z,22.40
2019-05-07T08:39:09.970Z,22.70
2019-05-07T08:41:37.522Z,22.50
2019-05-07T08:44:16.005Z,22.20
2019-05-07T08:46:45.188Z,22.40
2019-05-07T08:49:14.471Z,22.40
2019-05-07T08:51:42.619Z,22.30
2019-05-07T08:54:12.156Z,22.50
2019-05-07T08:56:39.633Z,22.60
2019-05-07T08:59:07.519Z,22.70
2019-05-07T09:01:35.618Z,22.60
2019-05-07T09:04:03.481Z,22.70
2019-05-07T09:06:33.743Z,22.80
2019-05-07T09:09:12.847Z,22.50
2019-05-07T09:11:39.878Z,22.50
2019-05-07T09:14:07.779Z,22.40
2019-05-07T09:16:35.445Z,22.60
2019-05-07T09:19:03.292Z,22.60
2019-05-07T09:21:32.176Z,22.50
2019-05-07T09:23:59.950Z,22.50
2019-05-07T09:26:29.139Z,22.60
2019-05-07T09:29:14.851Z,22.50
2019-05-07T09:31:44.049Z,22.50
2019-05-07T09:34:11.832Z,22.50
2019-05-07T09:36:42.425Z,22.40
2019-05-07T09:39:12.041Z,22.40
2019-05-07T09:41:41.667Z,22.40
2019-05-07T09:44:08.832Z,22.40
2019-05-07T09:46:36.434Z,22.10
2019-05-07T09:49:03.990Z,22.20
2019-05-07T09:51:32.170Z,22.40
2019-05-07T09:54:02.400Z,22.30
2019-05-07T09:56:31.875Z,22.20
2019-05-07T09:58:59.422Z,21.80
2019-05-07T10:01:26.975Z,22.00
2019-05-07T10:03:54.589Z,21.80
2019-05-07T10:06:22.949Z,21.60
2019-05-07T10:08:52.392Z,21.80
2019-05-07T10:11:45.249Z,21.70
2019-05-07T10:14:13.064Z,21.80
2019-05-07T10:16:42.308Z,21.90
2019-05-07T10:19:09.894Z,21.80
2019-05-07T10:21:37.509Z,21.80
2019-05-07T10:24:05.084Z,21.70
2019-05-07T10:26:32.838Z,21.50
2019-05-07T10:29:02.138Z,21.60
2019-05-07T10:31:31.880Z,21.30
2019-05-07T10:33:59.041Z,21.40
2019-05-07T10:36:26.721Z,21.40
2019-05-07T10:38:54.276Z,21.20
2019-05-07T10:41:22.342Z,21.60
2019-05-07T10:43:51.911Z,21.30
2019-05-07T10:46:20.930Z,21.50
2019-05-07T10:49:02.144Z,21.70
2019-05-07T10:51:29.758Z,21.60
2019-05-07T10:53:57.309Z,21.40
2019-05-07T10:56:24.914Z,21.50
2019-05-07T10:58:52.488Z,21.60
2019-05-07T11:01:22.430Z,21.70
2019-05-07T11:03:51.719Z,21.40
2019-05-07T11:06:21.963Z,21.60
2019-05-07T11:08:48.745Z,21.60
2019-05-07T11:11:16.314Z,21.70
2019-05-07T11:13:43.924Z,21.60
2019-05-07T11:16:13.122Z,21.80
2019-05-07T11:18:45.036Z,21.50
2019-05-07T11:21:12.658Z,21.70
2019-05-07T11:23:41.877Z,21.40
2019-05-07T11:26:11.625Z,21.40
2019-05-07T11:28:38.942Z,21.50
2019-05-07T11:31:06.700Z,21.20
2019-05-07T11:33:34.269Z,21.60
2019-05-07T11:36:02.261Z,21.60
2019-05-07T11:38:30.054Z,21.30
2019-05-07T11:40:57.628Z,21.50
2019-05-07T11:43:26.850Z,21.50
2019-05-07T11:46:02.124Z,21.40
2019-05-07T11:48:29.738Z,21.30
2019-05-07T11:51:03.238Z,21.40
2019-05-07T11:53:32.904Z,21.60
2019-05-07T11:56:02.458Z,21.50
2019-05-07T11:58:29.832Z,21.40
2019-05-07T12:01:03.869Z,21.10
2019-05-07T12:03:32.446Z,21.30
2019-05-07T12:06:02.046Z,21.30
2019-05-07T12:08:39.358Z,21.30
2019-05-07T12:10:58.783Z,21.30
2019-05-07T12:13:26.372Z,21.20
2019-05-07T12:15:53.950Z,21.10
2019-05-07T12:18:22.724Z,21.20
2019-05-07T12:20:53.920Z,21.30
2019-05-07T12:23:19.805Z,21.00
2019-05-07T12:25:47.348Z,21.40
2019-05-07T12:28:14.942Z,21.20
2019-05-07T12:30:47.392Z,21.10
2019-05-07T12:33:16.612Z,21.20
2019-05-07T12:35:44.198Z,21.60
2019-05-07T12:38:12.779Z,20.90
2019-05-07T12:40:41.903Z,20.70
2019-05-07T12:43:10.578Z,21.10
2019-05-07T12:45:38.403Z,20.90
2019-05-07T12:48:06.118Z,20.70
2019-05-07T12:50:33.693Z,21.10
2019-05-07T12:53:05.949Z,20.90
2019-05-07T12:55:44.026Z,21.10
2019-05-07T12:58:12.623Z,21.20
2019-05-07T13:00:57.328Z,20.50
2019-05-07T13:03:35.300Z,20.80
2019-05-07T13:06:02.910Z,20.50
2019-05-07T13:08:32.758Z,21.00
2019-05-07T13:10:59.785Z,21.00
2019-05-07T13:13:27.412Z,21.00
2019-05-07T13:15:54.940Z,20.70
2019-05-07T13:18:22.723Z,20.60
2019-05-07T13:20:51.916Z,20.80
2019-05-07T13:23:19.724Z,20.50
2019-05-07T13:25:47.316Z,20.70
2019-05-07T13:28:14.871Z,20.50
2019-05-07T13:30:43.915Z,20.40
2019-05-07T13:33:12.317Z,20.40
2019-05-07T13:35:41.958Z,20.40
2019-05-07T13:38:14.611Z,20.50
2019-05-07T13:40:44.225Z,20.20
2019-05-07T13:43:19.426Z,20.00
2019-05-07T13:45:49.156Z,19.90
2019-05-07T13:48:22.566Z,19.80
2019-05-07T13:50:50.306Z,19.80
2019-05-07T13:53:17.906Z,20.00
2019-05-07T13:55:45.484Z,19.40
2019-05-07T13:58:14.337Z,19.40
2019-05-07T14:00:43.758Z,19.40
2019-05-07T14:03:12.061Z,19.40
2019-05-07T14:05:39.700Z,19.40
2019-05-07T14:08:07.307Z,19.80
2019-05-07T14:10:34.862Z,19.40
2019-05-07T14:13:12.585Z,19.40
2019-05-07T14:15:32.110Z,19.40
2019-05-07T14:18:02.194Z,19.40
2019-05-07T14:20:29.878Z,19.90
2019-05-07T14:22:57.477Z,19.40
2019-05-07T14:25:25.027Z,19.70
2019-05-07T14:27:52.706Z,19.40
2019-05-07T14:30:21.696Z,19.50
2019-05-07T14:32:54.161Z,19.50
2019-05-07T14:35:26.362Z,19.40
2019-05-07T14:38:01.330Z,19.40
2019-05-07T14:40:28.921Z,19.40
2019-05-07T14:42:58.115Z,19.60
2019-05-07T14:45:25.695Z,19.40
2019-05-07T14:47:53.237Z,19.40
2019-05-07T14:50:22.565Z,19.50
2019-05-07T14:52:52.299Z,19.40
2019-05-07T14:55:19.461Z,19.50
2019-05-07T14:57:47.069Z,19.40
2019-05-07T15:00:14.637Z,19.50
2019-05-07T15:02:42.328Z,19.50
2019-05-07T15:05:11.929Z,19.50
2019-05-07T15:07:39.347Z,19.50
2019-05-07T15:10:07.415Z,19.50
2019-05-07T15:12:35.011Z,19.50
2019-05-07T15:15:02.725Z,19.50
2019-05-07T15:17:34.601Z,19.50
2019-05-07T15:20:02.850Z,19.40
2019-05-07T15:22:45.844Z,19.40
2019-05-07T15:25:02.874Z,19.40
2019-05-07T15:27:32.322Z,19.40
2019-05-07T15:30:02.372Z,19.50
2019-05-07T15:32:29.430Z,19.40
2019-05-07T15:34:57.122Z,19.40
2019-05-07T15:37:24.721Z,19.40
2019-05-07T15:39:52.661Z,19.40
2019-05-07T15:42:22.207Z,19.40
2019-05-07T15:44:50.020Z,19.40
2019-05-07T15:47:25.192Z,19.40
2019-05-07T15:49:52.793Z,19.50
2019-05-07T15:52:22.239Z,19.40
2019-05-07T15:54:49.839Z,19.40
2019-05-07T15:57:22.409Z,19.40
2019-05-07T15:59:52.441Z,19.40
2019-05-07T16:02:34.113Z,19.40
2019-05-07T16:05:02.173Z,19.40
2019-05-07T16:07:32.771Z,20.20
2019-05-07T16:10:00.539Z,20.20
2019-05-07T16:12:28.640Z,20.60
2019-05-07T16:14:56.236Z,20.20
2019-05-07T16:17:25.441Z,20.50
2019-05-07T16:19:55.057Z,20.60
2019-05-07T16:22:23.981Z,20.50
2019-05-07T16:24:51.544Z,20.40
2019-05-07T16:27:19.140Z,20.90
2019-05-07T16:29:46.731Z,21.70
2019-05-07T16:32:14.351Z,21.70
2019-05-07T16:34:42.885Z,21.80
2019-05-07T16:37:12.325Z,21.80
2019-05-07T16:39:41.994Z,21.60
2019-05-07T16:42:09.464Z,21.80
2019-05-07T16:44:37.058Z,21.90
2019-05-07T16:47:04.816Z,21.80
2019-05-07T16:49:32.458Z,22.20
2019-05-07T16:52:01.815Z,21.60
2019-05-07T16:54:29.375Z,21.60
2019-05-07T16:57:16.935Z,21.70
2019-05-07T16:59:44.578Z,21.80
2019-05-07T17:02:13.782Z,21.90
2019-05-07T17:04:43.004Z,22.00
2019-05-07T17:07:13.361Z,22.20
2019-05-07T17:09:42.450Z,22.30
2019-05-07T17:12:11.846Z,22.30
2019-05-07T17:14:39.422Z,22.30
2019-05-07T17:17:07.153Z,22.20
2019-05-07T17:19:34.752Z,22.30
2019-05-07T17:22:02.812Z,21.90
2019-05-07T17:24:33.010Z,21.90
2019-05-07T17:27:02.320Z,21.80
2019-05-07T17:29:32.146Z,21.90
2019-05-07T17:32:01.324Z,22.00
2019-05-07T17:34:28.701Z,22.60
2019-05-07T17:36:56.320Z,22.70
2019-05-07T17:39:23.895Z,22.30
2019-05-07T17:41:51.914Z,22.40
2019-05-07T17:44:19.675Z,22.40
2019-05-07T17:46:47.273Z,22.70
2019-05-07T17:49:15.933Z,22.60
2019-05-07T17:51:44.167Z,22.50
2019-05-07T17:54:13.100Z,22.40
2019-05-07T17:56:42.198Z,22.60
2019-05-07T17:59:29.522Z,22.70
2019-05-07T18:02:14.006Z,22.80
2019-05-07T18:04:50.970Z,22.70
2019-05-07T18:07:12.520Z,22.60
2019-05-07T18:09:42.244Z,22.70
2019-05-07T18:12:09.391Z,22.90
2019-05-07T18:14:36.963Z,22.70
2019-05-07T18:17:09.040Z,22.60
2019-05-07T18:19:36.632Z,22.80
2019-05-07T18:22:04.206Z,23.40
2019-05-07T18:24:32.629Z,22.90
2019-05-07T18:27:01.934Z,22.90
2019-05-07T18:29:29.727Z,22.90
2019-05-07T18:31:59.079Z,23.00
2019-05-07T18:34:26.647Z,23.00
2019-05-07T18:36:54.228Z,23.00
2019-05-07T18:39:21.795Z,23.00
2019-05-07T18:41:49.475Z,23.10
2019-05-07T18:44:17.111Z,23.10
2019-05-07T18:46:44.830Z,23.10
2019-05-07T18:49:12.885Z,23.20
2019-05-07T18:51:42.535Z,23.70
2019-05-07T18:54:11.797Z,23.80
2019-05-07T18:56:39.201Z,23.30
2019-05-07T18:59:06.875Z,23.30
2019-05-07T19:01:35.579Z,23.80
2019-05-07T19:04:22.580Z,23.80
2019-05-07T19:06:51.740Z,23.90
2019-05-07T19:09:19.633Z,23.90
2019-05-07T19:11:47.213Z,23.80
2019-05-07T19:14:15.531Z,23.60
2019-05-07T19:16:43.229Z,23.50
2019-05-07T19:19:12.445Z,23.70
2019-05-07T19:21:42.222Z,23.90
2019-05-07T19:24:09.829Z,23.90
2019-05-07T19:26:37.776Z,24.00
2019-05-07T19:29:05.419Z,23.80
2019-05-07T19:31:33.049Z,23.90
2019-05-07T19:34:21.806Z,23.80
2019-05-07T19:36:51.825Z,23.90
2019-05-07T19:39:18.875Z,24.10
2019-05-07T19:41:46.973Z,24.00
2019-05-07T19:44:14.539Z,23.80
2019-05-07T19:46:42.089Z,24.20
2019-05-07T19:49:09.691Z,24.20
2019-05-07T19:51:37.589Z,24.20
2019-05-07T19:54:05.137Z,24.20
2019-05-07T19:56:32.782Z,24.20
2019-05-07T19:59:00.362Z,24.30
2019-05-07T20:01:29.594Z,24.20
2019-05-07T20:03:57.154Z,24.20
2019-05-07T20:06:24.746Z,24.20
2019-05-07T20:09:08.129Z,24.20
2019-05-07T20:11:35.009Z,24.20
2019-05-07T20:14:02.626Z,24.30
2019-05-07T20:16:32.392Z,24.20
2019-05-07T20:18:59.667Z,24.20
2019-05-07T20:21:27.254Z,24.20
2019-05-07T20:23:54.812Z,24.20
2019-05-07T20:26:23.197Z,24.20
2019-05-07T20:28:52.637Z,24.20
2019-05-07T20:31:22.582Z,24.20
2019-05-07T20:34:09.157Z,24.10
2019-05-07T20:36:36.729Z,24.10
2019-05-07T20:39:05.651Z,24.20
2019-05-07T20:41:33.276Z,24.20
2019-05-07T20:44:02.811Z,24.50
2019-05-07T20:46:31.899Z,24.10
2019-05-07T20:49:02.517Z,23.90
2019-05-07T20:51:28.981Z,24.10
2019-05-07T20:54:12.689Z,23.80
2019-05-07T20:56:46.591Z,24.00
2019-05-07T20:59:13.977Z,23.60
2019-05-07T21:01:42.051Z,23.80
2019-05-07T21:04:09.795Z,24.00
2019-05-07T21:06:37.387Z,23.80
2019-05-07T21:09:06.050Z,23.80
2019-05-07T21:11:33.656Z,23.90
2019-05-07T21:14:03.215Z,23.70
2019-05-07T21:16:32.734Z,23.80
2019-05-07T21:19:01.944Z,23.70
2019-05-07T21:21:29.222Z,23.90
2019-05-07T21:23:56.783Z,23.90
2019-05-07T21:26:24.355Z,24.20
2019-05-07T21:28:52.800Z,24.20
2019-05-07T21:31:22.674Z,24.20
2019-05-07T21:33:52.202Z,24.30
2019-05-07T21:36:19.229Z,24.20
2019-05-07T21:38:46.923Z,24.30
2019-05-07T21:41:14.560Z,24.20
2019-05-07T21:43:45.745Z,24.30
2019-05-07T21:46:12.823Z,24.20
2019-05-07T21:48:40.619Z,24.30
2019-05-07T21:51:08.188Z,24.20
2019-05-07T21:53:40.143Z,24.20
2019-05-07T21:56:25.980Z,24.30
2019-05-07T21:58:55.251Z,24.30
2019-05-07T22:01:27.472Z,24.20
2019-05-07T22:03:56.683Z,24.20
2019-05-07T22:06:24.239Z,24.30
2019-05-07T22:08:52.551Z,24.30
2019-05-07T22:11:22.967Z,24.20
2019-05-07T22:13:52.602Z,24.30
2019-05-07T22:16:22.020Z,24.30
2019-05-07T22:18:49.089Z,24.30
2019-05-07T22:21:16.687Z,24.30
2019-05-07T22:23:44.258Z,24.20
2019-05-07T22:26:20.273Z,24.80
2019-05-07T22:28:41.941Z,24.30
2019-05-07T22:31:17.619Z,24.30
2019-05-07T22:33:46.858Z,24.30
2019-05-07T22:36:14.402Z,24.20
2019-05-07T22:38:41.983Z,24.20
2019-05-07T22:41:12.684Z,24.30
2019-05-07T22:43:39.663Z,24.20
2019-05-07T22:46:07.306Z,24.30
2019-05-07T22:48:34.896Z,24.90
2019-05-07T22:51:02.789Z,24.30
2019-05-07T22:53:32.661Z,24.30
2019-05-07T22:55:59.920Z,24.30
2019-05-07T22:58:29.164Z,24.20
2019-05-07T23:00:58.396Z,24.30
2019-05-07T23:03:25.968Z,24.30
2019-05-07T23:05:54.133Z,24.30
2019-05-07T23:08:22.246Z,24.30
2019-05-07T23:10:52.447Z,24.30
2019-05-07T23:13:19.181Z,24.30
2019-05-07T23:15:46.741Z,24.30
2019-05-07T23:18:14.400Z,24.30
2019-05-07T23:20:42.690Z,24.20
2019-05-07T23:23:13.865Z,24.30
2019-05-07T23:25:39.857Z,24.30
2019-05-07T23:28:07.441Z,24.30
2019-05-07T23:30:35.060Z,24.30
2019-05-07T23:33:02.618Z,24.30
2019-05-07T23:35:30.201Z,24.30
2019-05-07T23:37:57.852Z,24.30
2019-05-07T23:40:43.649Z,24.40
2019-05-07T23:43:12.906Z,24.50
2019-05-07T23:45:42.049Z,24.90
2019-05-07T23:48:12.183Z,24.30
2019-05-07T23:50:39.072Z,24.30
2019-05-07T23:53:06.645Z,24.30
2019-05-07T23:55:34.222Z,24.30
2019-05-07T23:58:03.111Z,24.30
